createdAt,value
2023-02-27T00:01:27.102Z,47.93
2023-02-27T00:06:34.727Z,51.50
2023-02-27T00:11:41.407Z,46.97
2023-02-27T00:16:51.135Z,47.73
2023-02-27T00:27:04.543Z,45.00
2023-02-27T00:32:12.318Z,45.97
2023-02-27T00:37:19.901Z,45.30
2023-02-27T00:42:28.489Z,44.00
2023-02-27T00:47:37.847Z,43.40
2023-02-27T00:52:45.350Z,45.60
2023-02-27T00:57:53.307Z,46.33
2023-02-27T01:03:00.961Z,45.97
2023-02-27T01:08:09.519Z,44.70
2023-02-27T01:13:16.831Z,45.03
2023-02-27T01:18:23.898Z,45.52
2023-02-27T01:23:31.592Z,45.75
2023-02-27T01:28:38.424Z,44.77
2023-02-27T01:33:49.719Z,43.40
2023-02-27T01:38:57.125Z,44.47
2023-02-27T01:44:10.486Z,44.17
2023-02-27T01:49:29.962Z,44.07
2023-02-27T01:54:40.705Z,43.57
2023-02-27T01:59:48.048Z,44.97
2023-02-27T02:04:56.227Z,43.57
2023-02-27T02:10:04.741Z,44.63
2023-02-27T02:15:12.038Z,43.30
2023-02-27T02:20:29.882Z,44.23
2023-02-27T02:26:16.847Z,43.23
2023-02-27T02:31:53.046Z,43.98
2023-02-27T02:37:25.832Z,43.40
2023-02-27T02:42:49.784Z,43.33
2023-02-27T02:48:07.767Z,43.90
2023-02-27T02:53:40.298Z,44.55
2023-02-27T02:59:11.154Z,43.03
2023-02-27T03:04:34.525Z,43.53
2023-02-27T03:09:47.661Z,42.83
2023-02-27T03:15:28.393Z,43.70
2023-02-27T03:20:43.128Z,44.37
2023-02-27T03:25:53.046Z,44.65
2023-02-27T03:31:08.979Z,44.20
2023-02-27T03:36:35.957Z,43.55
2023-02-27T03:42:18.989Z,43.27
2023-02-27T03:47:27.480Z,43.45
2023-02-27T03:52:35.537Z,43.03
2023-02-27T03:57:43.920Z,42.67
2023-02-27T04:02:53.065Z,42.93
2023-02-27T04:08:33.959Z,42.63
2023-02-27T04:13:57.648Z,43.53
2023-02-27T04:19:47.233Z,42.23
2023-02-27T04:25:22.400Z,42.50
2023-02-27T04:30:58.269Z,41.70
2023-02-27T04:36:13.771Z,41.60
2023-02-27T04:41:27.334Z,43.30
2023-02-27T04:46:36.241Z,43.40
2023-02-27T04:52:06.956Z,42.93
2023-02-27T04:57:20.952Z,41.88
2023-02-27T05:02:37.169Z,43.40
2023-02-27T05:07:49.649Z,42.80
2023-02-27T05:13:17.189Z,43.07
2023-02-27T05:24:01.227Z,43.40
2023-02-27T05:34:47.950Z,42.77
2023-02-27T05:39:55.203Z,42.53
2023-02-27T05:45:15.059Z,42.77
2023-02-27T05:50:26.796Z,41.70
2023-02-27T05:55:46.316Z,43.05
2023-02-27T06:01:02.685Z,42.23
2023-02-27T06:06:15.082Z,41.53
2023-02-27T06:11:22.453Z,41.60
2023-02-27T06:16:31.146Z,42.10
2023-02-27T06:21:38.152Z,43.73
2023-02-27T06:26:47.525Z,42.07
2023-02-27T06:31:54.516Z,43.40
2023-02-27T06:37:03.906Z,43.40
2023-02-27T06:42:11.020Z,41.73
2023-02-27T06:47:18.505Z,42.47
2023-02-27T06:52:29.059Z,41.90
2023-02-27T06:57:36.839Z,42.27
2023-02-27T07:02:45.099Z,42.63
2023-02-27T07:07:52.756Z,43.13
2023-02-27T07:13:00.123Z,42.10
2023-02-27T07:18:07.778Z,43.23
2023-02-27T07:23:14.788Z,42.60
2023-02-27T07:28:22.973Z,44.10
2023-02-27T07:33:32.158Z,43.37
2023-02-27T07:38:39.149Z,44.03
2023-02-27T07:43:46.506Z,43.30
2023-02-27T07:48:55.994Z,49.47
2023-02-27T07:54:02.982Z,42.33
2023-02-27T07:59:13.294Z,44.27
2023-02-27T08:04:21.680Z,44.33
2023-02-27T08:09:29.066Z,44.77
2023-02-27T08:14:37.180Z,44.30
2023-02-27T08:19:44.337Z,45.77
2023-02-27T08:24:52.788Z,45.93
2023-02-27T08:29:59.885Z,44.97
2023-02-27T08:35:07.855Z,45.10
2023-02-27T08:40:14.937Z,46.00
2023-02-27T08:45:21.984Z,46.30
2023-02-27T08:55:34.670Z,47.90
2023-02-27T09:00:42.671Z,46.18
2023-02-27T09:05:51.241Z,46.67
2023-02-27T09:11:01.556Z,46.43
2023-02-27T09:16:09.021Z,46.30
2023-02-27T09:21:16.132Z,49.17
2023-02-27T09:26:39.688Z,48.08
2023-02-27T09:31:33.611Z,46.58
2023-02-27T09:36:40.722Z,46.50
2023-02-27T09:42:04.914Z,48.23
2023-02-27T09:47:22.010Z,49.27
2023-02-27T09:52:31.817Z,45.50
2023-02-27T09:57:51.902Z,48.37
2023-02-27T10:03:09.370Z,46.27
2023-02-27T10:08:42.797Z,50.67
2023-02-27T10:14:09.379Z,49.40
2023-02-27T10:19:28.214Z,49.73
2023-02-27T10:24:47.344Z,54.90
2023-02-27T10:29:59.098Z,50.27
2023-02-27T10:35:25.720Z,49.17
2023-02-27T10:40:33.304Z,51.98
2023-02-27T10:45:40.824Z,51.50
2023-02-27T10:50:52.000Z,50.13
2023-02-27T10:56:05.734Z,50.80
2023-02-27T11:01:14.945Z,49.23
2023-02-27T11:06:27.724Z,48.80
2023-02-27T11:11:34.865Z,50.70
2023-02-27T11:16:57.325Z,49.40
2023-02-27T11:22:24.887Z,50.27
2023-02-27T11:32:49.517Z,50.40
2023-02-27T11:38:01.026Z,53.28
2023-02-27T11:43:24.348Z,51.83
2023-02-27T11:48:39.218Z,54.67
2023-02-27T11:54:10.725Z,52.30
2023-02-27T11:59:30.882Z,48.17
2023-02-27T12:05:05.889Z,49.37
2023-02-27T12:10:32.111Z,50.13
2023-02-27T12:16:15.438Z,50.33
2023-02-27T12:21:35.300Z,53.57
2023-02-27T12:26:48.496Z,47.00
2023-02-27T12:32:21.379Z,50.47
2023-02-27T12:37:34.051Z,48.13
2023-02-27T12:43:11.077Z,51.57
2023-02-27T12:48:51.276Z,48.90
2023-02-27T12:54:21.138Z,48.53
2023-02-27T13:00:05.505Z,47.23
2023-02-27T13:05:36.677Z,48.90
2023-02-27T13:10:56.948Z,48.27
2023-02-27T13:16:24.806Z,48.30
2023-02-27T13:21:42.860Z,48.27
2023-02-27T13:26:57.564Z,47.07
2023-02-27T13:32:44.892Z,46.70
2023-02-27T13:38:03.054Z,46.50
2023-02-27T13:43:40.490Z,46.92
2023-02-27T13:48:47.847Z,47.20
2023-02-27T13:54:22.431Z,46.73
2023-02-27T13:59:44.806Z,47.73
2023-02-27T14:05:01.566Z,47.97
2023-02-27T14:10:11.882Z,49.25
2023-02-27T14:15:37.455Z,47.60
2023-02-27T14:20:50.819Z,48.97
2023-02-27T14:26:13.920Z,46.83
2023-02-27T14:31:27.797Z,47.15
2023-02-27T14:36:44.943Z,45.90
2023-02-27T14:42:31.041Z,51.88
2023-02-27T14:47:39.664Z,45.75
2023-02-27T14:52:48.162Z,45.70
2023-02-27T14:58:17.540Z,46.20
2023-02-27T15:03:39.135Z,46.23
2023-02-27T15:08:53.397Z,48.90
2023-02-27T15:14:06.929Z,47.53
2023-02-27T15:19:23.698Z,49.22
2023-02-27T15:24:49.138Z,48.63
2023-02-27T15:29:48.752Z,48.13
2023-02-27T15:34:58.560Z,48.27
2023-02-27T15:40:09.401Z,48.27
2023-02-27T15:45:24.290Z,50.17
2023-02-27T15:50:38.872Z,50.78
2023-02-27T15:55:51.125Z,51.67
2023-02-27T16:01:20.987Z,49.93
2023-02-27T16:06:32.070Z,49.10
2023-02-27T16:11:39.479Z,50.83
2023-02-27T16:16:57.635Z,49.50
2023-02-27T16:22:20.140Z,50.23
2023-02-27T16:27:32.262Z,50.07
2023-02-27T16:32:47.266Z,52.13
2023-02-27T16:37:56.703Z,50.77
2023-02-27T16:43:03.801Z,52.83
2023-02-27T16:48:12.631Z,68.53
2023-02-27T16:53:21.256Z,49.53
2023-02-27T16:58:29.200Z,49.83
2023-02-27T17:03:36.880Z,47.57
2023-02-27T17:08:45.882Z,49.60
2023-02-27T17:13:52.930Z,48.10
2023-02-27T17:19:00.405Z,48.38
2023-02-27T17:24:08.368Z,47.85
2023-02-27T17:29:16.519Z,49.93
2023-02-27T17:34:25.629Z,48.67
2023-02-27T17:39:33.836Z,50.73
2023-02-27T17:44:40.857Z,56.10
2023-02-27T17:49:48.385Z,56.37
2023-02-27T18:00:04.393Z,47.43
2023-02-27T18:05:12.288Z,54.23
2023-02-27T18:10:19.600Z,49.13
2023-02-27T18:15:27.516Z,50.57
2023-02-27T18:20:35.191Z,48.50
2023-02-27T18:25:42.625Z,64.10
2023-02-27T18:30:49.988Z,56.40
2023-02-27T18:41:06.280Z,48.42
2023-02-27T18:46:15.510Z,49.13
2023-02-27T18:51:23.482Z,50.90
2023-02-27T18:56:33.291Z,51.30
2023-02-27T19:01:41.443Z,51.60
2023-02-27T19:06:48.459Z,53.80
2023-02-27T19:11:55.502Z,50.43
2023-02-27T19:17:02.691Z,48.97
2023-02-27T19:22:09.914Z,49.45
2023-02-27T19:27:17.507Z,50.12
2023-02-27T19:32:27.831Z,50.73
2023-02-27T19:37:34.714Z,51.53
2023-02-27T19:42:42.866Z,52.77
2023-02-27T19:47:50.202Z,51.17
2023-02-27T19:52:57.632Z,49.50
2023-02-27T19:58:05.740Z,48.17
2023-02-27T20:03:12.277Z,48.60
2023-02-27T20:08:19.992Z,48.87
2023-02-27T20:13:28.117Z,49.55
2023-02-27T20:18:36.149Z,48.23
2023-02-27T20:23:45.740Z,50.33
2023-02-27T20:28:54.911Z,49.83
2023-02-27T20:34:02.041Z,53.07
2023-02-27T20:39:10.466Z,52.67
2023-02-27T20:44:20.541Z,52.83
2023-02-27T20:49:28.996Z,49.40
2023-02-27T20:54:36.095Z,51.47
2023-02-27T20:59:44.119Z,51.90
2023-02-27T21:04:54.032Z,51.47
2023-02-27T21:10:01.264Z,51.17
2023-02-27T21:15:09.462Z,54.08
2023-02-27T21:20:16.972Z,54.90
2023-02-27T21:25:26.322Z,55.58
2023-02-27T21:30:35.816Z,61.77
2023-02-27T21:35:50.458Z,60.63
2023-02-27T21:40:58.647Z,57.87
2023-02-27T21:46:11.950Z,56.97
2023-02-27T21:51:33.062Z,57.47
2023-02-27T21:56:30.382Z,55.63
2023-02-27T22:01:38.798Z,56.17
2023-02-27T22:06:47.711Z,55.50
2023-02-27T22:11:54.427Z,58.33
2023-02-27T22:17:01.245Z,59.35
2023-02-27T22:22:08.752Z,57.73
2023-02-27T22:27:16.391Z,57.73
2023-02-27T22:32:23.272Z,59.40
2023-02-27T22:37:31.820Z,58.80
2023-02-27T22:42:38.832Z,56.10
2023-02-27T22:47:47.052Z,57.53
2023-02-27T22:52:53.819Z,59.87
2023-02-27T22:58:00.970Z,57.73
2023-02-27T23:03:11.030Z,57.17
2023-02-27T23:08:18.833Z,59.57
2023-02-27T23:13:28.016Z,56.63
2023-02-27T23:18:35.697Z,63.43
2023-02-27T23:23:43.478Z,57.97
2023-02-27T23:28:52.430Z,56.70
2023-02-27T23:34:01.373Z,55.43
2023-02-27T23:39:10.237Z,56.03
2023-02-27T23:44:17.391Z,55.20
2023-02-27T23:49:27.433Z,54.37
2023-02-27T23:54:35.471Z,54.95
2023-02-27T23:59:47.905Z,54.55
